createdAt,value
2022-12-01T00:00:03.549Z,26.4
2022-12-01T00:05:01.474Z,26.2
2022-12-01T00:10:02.331Z,26.2
2022-12-01T00:15:02.731Z,26.5
2022-12-01T00:20:01.673Z,27.5
2022-12-01T00:25:01.722Z,27.0
2022-12-01T00:30:02.916Z,27.4
2022-12-01T00:35:01.698Z,27.4
2022-12-01T00:40:01.673Z,25.9
2022-12-01T00:45:02.242Z,26.1
2022-12-01T00:50:01.805Z,26.2
2022-12-01T00:55:02.421Z,25.8
2022-12-01T01:00:02.884Z,25.7
2022-12-01T01:05:01.715Z,27.2
2022-12-01T01:10:02.268Z,26.5
2022-12-01T01:15:02.347Z,26.0
2022-12-01T01:20:01.756Z,25.3
2022-12-01T01:25:01.728Z,25.1
2022-12-01T01:30:03.142Z,24.7
2022-12-01T01:35:01.796Z,25.2
2022-12-01T01:40:01.753Z,25.7
2022-12-01T01:45:02.949Z,25.6
2022-12-01T01:50:01.767Z,26.2
2022-12-01T01:55:01.657Z,26.5
2022-12-01T02:00:01.696Z,26.6
2022-12-01T02:05:02.541Z,26.4
2022-12-01T02:10:02.548Z,27.3
2022-12-01T02:15:11.033Z,27.2
2022-12-01T02:20:01.686Z,27.0
2022-12-01T02:25:01.904Z,27.1
2022-12-01T02:30:05.089Z,27.0
2022-12-01T02:35:01.684Z,26.6
2022-12-01T02:40:13.332Z,26.2
2022-12-01T02:45:05.445Z,26.3
2022-12-01T02:50:01.850Z,26.5
2022-12-01T02:55:01.690Z,26.8
2022-12-01T03:00:03.836Z,26.8
2022-12-01T03:10:01.855Z,26.4
2022-12-01T03:15:01.704Z,26.0
2022-12-01T03:20:01.592Z,24.7
2022-12-01T03:25:01.701Z,24.4
2022-12-01T03:30:03.144Z,24.3
2022-12-01T03:35:01.757Z,25.2
2022-12-01T03:40:02.592Z,24.5
2022-12-01T03:45:06.425Z,25.2
2022-12-01T03:50:01.691Z,25.1
2022-12-01T03:55:01.737Z,25.1
2022-12-01T04:00:01.682Z,24.8
2022-12-01T04:05:01.800Z,25.3
2022-12-01T04:10:01.699Z,25.9
2022-12-01T04:15:04.097Z,26.5
2022-12-01T04:20:02.261Z,26.9
2022-12-01T04:25:01.866Z,27.4
2022-12-01T04:30:02.904Z,28.1
2022-12-01T04:35:01.714Z,28.2
2022-12-01T04:45:03.768Z,27.5
2022-12-01T04:55:01.899Z,27.0
2022-12-01T05:00:03.370Z,27.2
2022-12-01T05:05:01.935Z,27.0
2022-12-01T05:15:02.262Z,26.5
2022-12-01T05:20:01.711Z,27.2
2022-12-01T05:25:01.944Z,27.4
2022-12-01T05:30:03.652Z,27.7
2022-12-01T05:35:01.713Z,27.3
2022-12-01T05:40:01.768Z,28.2
2022-12-01T05:45:02.357Z,28.0
2022-12-01T05:50:08.570Z,28.0
2022-12-01T05:55:01.715Z,28.1
2022-12-01T06:00:03.646Z,26.0
2022-12-01T06:05:01.920Z,26.7
2022-12-01T06:10:02.185Z,27.1
2022-12-01T06:15:02.714Z,26.8
2022-12-01T06:20:01.791Z,26.4
2022-12-01T06:25:02.773Z,28.8
2022-12-01T06:30:04.082Z,27.6
2022-12-01T06:35:01.780Z,27.2
2022-12-01T06:40:02.294Z,27.5
2022-12-01T06:45:02.363Z,27.2
2022-12-01T06:50:01.856Z,27.1
2022-12-01T06:55:02.283Z,28.3
2022-12-01T07:00:04.334Z,28.7
2022-12-01T07:05:01.902Z,28.0
2022-12-01T07:10:01.779Z,28.7
2022-12-01T07:15:03.323Z,28.8
2022-12-01T07:20:01.837Z,28.6
2022-12-01T07:25:02.170Z,28.6
2022-12-01T07:30:02.329Z,29.2
2022-12-01T07:35:01.868Z,29.9
2022-12-01T07:40:02.306Z,29.6
2022-12-01T07:45:03.031Z,29.0
2022-12-01T07:50:01.742Z,28.5
2022-12-01T07:55:01.763Z,27.1
2022-12-01T08:00:03.695Z,26.2
2022-12-01T08:05:01.854Z,26.6
2022-12-01T08:10:02.942Z,26.8
2022-12-01T08:15:02.645Z,26.9
2022-12-01T08:20:01.450Z,27.5
2022-12-01T08:25:01.924Z,28.4
2022-12-01T08:30:02.667Z,28.5
2022-12-01T08:35:01.729Z,28.6
2022-12-01T08:40:02.156Z,27.3
2022-12-01T08:45:02.113Z,27.4
2022-12-01T08:50:01.723Z,27.2
2022-12-01T08:55:01.747Z,27.4
2022-12-01T09:00:03.052Z,28.1
2022-12-01T09:05:01.859Z,30.1
2022-12-01T09:10:01.729Z,30.5
2022-12-01T09:15:02.448Z,30.6
2022-12-01T09:20:02.583Z,30.5
2022-12-01T09:25:01.863Z,30.1
2022-12-01T09:30:02.180Z,29.6
2022-12-01T09:35:01.693Z,29.4
2022-12-01T09:40:02.482Z,29.0
2022-12-01T09:45:03.493Z,27.8
2022-12-01T09:50:01.688Z,28.0
2022-12-01T09:55:01.658Z,28.1
2022-12-01T10:00:05.764Z,29.1
2022-12-01T10:05:01.914Z,30.0
2022-12-01T10:10:01.681Z,30.9
2022-12-01T10:15:14.646Z,30.6
2022-12-01T10:20:01.726Z,30.4
2022-12-01T10:25:01.829Z,29.8
2022-12-01T10:30:04.742Z,29.6
2022-12-01T10:35:01.945Z,29.8
2022-12-01T10:40:01.659Z,29.8
2022-12-01T10:45:05.102Z,30.3
2022-12-01T10:50:02.028Z,30.7
2022-12-01T10:55:02.201Z,30.4
2022-12-01T11:00:05.712Z,30.4
2022-12-01T11:05:01.744Z,30.8
2022-12-01T11:10:01.736Z,30.5
2022-12-01T11:15:04.770Z,29.8
2022-12-01T11:20:01.804Z,28.3
2022-12-01T11:25:01.785Z,27.7
2022-12-01T11:30:05.328Z,26.9
2022-12-01T11:40:05.050Z,27.6
2022-12-01T11:45:06.269Z,29.3
2022-12-01T11:55:10.488Z,31.0
2022-12-01T12:00:11.772Z,30.9
2022-12-01T12:05:01.860Z,30.1
2022-12-01T12:10:17.849Z,29.9
2022-12-01T12:15:17.601Z,29.7
2022-12-01T12:20:10.742Z,29.3
2022-12-01T12:25:01.978Z,28.4
2022-12-01T12:30:07.585Z,28.3
2022-12-01T12:35:01.782Z,28.0
2022-12-01T12:40:02.269Z,27.3
2022-12-01T12:45:10.708Z,27.6
2022-12-01T12:50:01.717Z,28.4
2022-12-01T12:55:01.661Z,29.1
2022-12-01T13:00:06.784Z,28.7
2022-12-01T13:05:01.840Z,29.2
2022-12-01T13:15:05.672Z,29.0
2022-12-01T13:20:01.717Z,28.4
2022-12-01T13:25:01.810Z,28.6
2022-12-01T13:30:02.719Z,28.4
2022-12-01T13:35:01.781Z,28.2
2022-12-01T13:40:01.733Z,28.2
2022-12-01T13:45:09.749Z,28.7
2022-12-01T13:50:17.426Z,29.4
2022-12-01T13:55:17.361Z,29.0
2022-12-01T14:00:06.316Z,28.7
2022-12-01T14:05:01.728Z,28.7
2022-12-01T14:10:01.694Z,29.0
2022-12-01T14:15:18.503Z,30.7
2022-12-01T14:20:01.689Z,41.1
2022-12-01T14:25:02.258Z,40.9
2022-12-01T14:45:03.716Z,25.4
2022-12-01T14:51:01.741Z,27.7
2022-12-01T14:56:01.702Z,28.8
2022-12-01T15:01:02.251Z,29.2
2022-12-01T15:06:03.657Z,30.1
2022-12-01T15:11:11.420Z,33.4
2022-12-01T15:16:01.955Z,34.1
2022-12-01T15:21:01.896Z,34.5
2022-12-01T15:26:02.766Z,34.8
2022-12-01T15:31:02.102Z,35.2
2022-12-01T15:36:01.773Z,34.2
2022-12-01T15:47:01.823Z,34.3
2022-12-01T15:52:01.636Z,34.5
2022-12-01T15:57:01.721Z,33.5
2022-12-01T16:02:14.950Z,32.4
2022-12-01T16:07:01.752Z,30.5
2022-12-01T16:12:01.716Z,30.4
2022-12-01T16:17:02.037Z,30.4
2022-12-01T16:22:01.823Z,30.4
2022-12-01T16:27:01.724Z,30.1
2022-12-01T16:55:02.520Z,29.8
2022-12-01T17:00:03.339Z,31.1
2022-12-01T17:06:01.736Z,30.2
2022-12-01T17:11:01.805Z,30.3
2022-12-01T17:16:01.897Z,30.2
2022-12-01T17:21:01.727Z,30.3
2022-12-01T17:26:01.717Z,30.2
2022-12-01T17:31:02.231Z,30.3
2022-12-01T17:36:02.777Z,30.3
2022-12-01T17:41:01.713Z,30.7
2022-12-01T17:46:01.905Z,30.4
2022-12-01T17:51:01.982Z,31.2
2022-12-01T17:56:01.742Z,31.6
2022-12-01T18:01:01.731Z,32.1
2022-12-01T18:06:01.617Z,31.1
2022-12-01T18:11:01.882Z,31.8
2022-12-01T18:16:05.965Z,31.1
2022-12-01T18:21:01.720Z,30.7
2022-12-01T18:26:01.737Z,30.2
2022-12-01T18:31:02.007Z,30.7
2022-12-01T18:36:01.742Z,30.4
2022-12-01T18:41:01.750Z,30.0
2022-12-01T18:46:01.778Z,30.2
2022-12-01T18:51:01.889Z,29.8
2022-12-01T18:56:04.085Z,29.5
2022-12-01T19:01:02.103Z,29.4
2022-12-01T19:06:01.737Z,29.2
2022-12-01T19:11:01.865Z,29.2
2022-12-01T19:16:06.311Z,30.3
2022-12-01T19:21:01.784Z,31.0
2022-12-01T19:26:01.722Z,31.4
2022-12-01T19:31:02.005Z,31.8
2022-12-01T19:36:01.725Z,32.3
2022-12-01T19:41:01.732Z,32.2
2022-12-01T19:46:01.695Z,31.7
2022-12-01T19:51:01.871Z,31.3
2022-12-01T19:56:01.739Z,30.8
2022-12-01T20:01:11.529Z,30.4
2022-12-01T20:06:01.950Z,30.1
2022-12-01T20:11:01.866Z,30.4
2022-12-01T20:16:01.911Z,30.4
2022-12-01T20:21:01.639Z,30.9
2022-12-01T20:26:01.712Z,30.9
2022-12-01T20:31:01.865Z,31.0
2022-12-01T20:36:01.725Z,30.8
2022-12-01T20:41:01.805Z,30.9
2022-12-01T20:46:02.060Z,30.4
2022-12-01T20:51:01.920Z,28.2
2022-12-01T20:56:01.645Z,28.1
2022-12-01T21:01:01.988Z,28.2
2022-12-01T21:06:01.742Z,27.7
2022-12-01T21:11:01.875Z,28.4
2022-12-01T21:16:14.568Z,30.1
2022-12-01T21:22:01.760Z,30.1
2022-12-01T21:27:01.707Z,28.1
2022-12-01T21:32:01.708Z,28.8
2022-12-01T21:37:01.721Z,28.0
2022-12-01T21:42:01.725Z,28.4
2022-12-01T21:47:02.114Z,28.4
2022-12-01T21:52:06.202Z,29.5
2022-12-01T21:57:01.709Z,29.8
2022-12-01T22:02:01.689Z,30.6
2022-12-01T22:07:02.257Z,30.6
2022-12-01T22:12:01.915Z,30.8
2022-12-01T22:17:01.649Z,31.1
2022-12-01T22:22:01.726Z,30.8
2022-12-01T22:27:01.793Z,30.8
2022-12-01T22:32:01.723Z,31.0
2022-12-01T22:37:01.829Z,31.5
2022-12-01T22:42:01.703Z,32.1
2022-12-01T22:47:01.671Z,32.5
2022-12-01T22:52:01.645Z,26.1
2022-12-01T22:57:01.766Z,26.1
2022-12-01T23:02:02.053Z,25.8
2022-12-01T23:07:01.889Z,25.9
2022-12-01T23:12:01.786Z,26.4
2022-12-01T23:17:01.676Z,32.9
2022-12-01T23:22:02.246Z,31.6
2022-12-01T23:27:01.881Z,31.5
2022-12-01T23:32:01.717Z,31.0
2022-12-01T23:37:01.731Z,30.4
2022-12-01T23:42:01.827Z,30.4
2022-12-01T23:47:02.157Z,32.1
2022-12-01T23:52:01.732Z,32.4
2022-12-01T23:57:01.743Z,33.5
